Sds Green — ICOK — position and weather

sailwx.info

Track history (hours):
 
Tides and Currents Weather Stations Pressure Air Temp Water Temp Dewpoint Dewpoint Depression Visibility Wind Speed Wind Dir Waves Ship Positions

Sds Green

Last reported at 2017-May-23 15:56 UTC. Time now 2017-May-23 17:06 UTC.
Position N 35°14' E 012°58'.

Length 108 m; draft 4.8 m.

Type: Cargo ship. MMSI: 247292200.

Date/timePositionNaut miles runAvg speedWind from/ knotsBaromVisibWave heightAir tempDewpointWater temp
2017-May-23 15:56N 35°14' E 012°58'5411.5
2017-May-23 11:14N 34°48' E 011°60'311.6
2017-May-23 11:00N 34°47' E 011°57'611.5
2017-May-23 10:30N 34°44' E 011°51'611.4
2017-May-23 10:00N 34°42' E 011°45'2411.3
2017-May-23 07:55N 34°33' E 011°18'511.5
2017-May-23 07:30N 34°32' E 011°13'25 2.6
2017-May-22 21:40N 34°44' E 010°46'0 0.0
2017-May-22 19:16N 34°44' E 010°46'0 0.0
2017-May-22 18:55N 34°44' E 010°46'  
2017-May-20 11:53N 34°44' E 010°46'0 0.0
2017-May-20 11:29N 34°44' E 010°46'31 1.0
2017-May-19 05:07N 34°28' E 011°19'1 9.8
2017-May-19 04:58N 34°29' E 011°21'18 9.7
2017-May-19 03:09N 34°36' E 011°40'1 9.7
2017-May-19 03:00N 34°37' E 011°42'5 9.5
2017-May-19 02:30N 34°40' E 011°46'5 9.5
2017-May-19 02:00N 34°42' E 011°52'5 9.6
2017-May-19 01:30N 34°43' E 011°57'5 9.6
2017-May-19 01:00N 34°45' E 012°02'5 8.7
2017-May-19 00:29N 34°50' E 012°03'4 9.1
2017-May-19 00:00N 34°54' E 012°02'5 9.1
2017-May-18 23:30N 34°59' E 012°02'5 9.2
2017-May-18 23:00N 35°03' E 012°01'41 9.4
2017-May-18 18:38N 35°44' E 011°53'1 9.3
2017-May-18 18:30N 35°45' E 011°53'5 9.2
2017-May-18 18:00N 35°49' E 011°52'510.0
2017-May-18 17:28N 35°55' E 011°52'34 9.9
2017-May-18 14:00N 36°29' E 011°51'5 9.9
2017-May-18 13:30N 36°34' E 011°51'510.0
2017-May-18 13:00N 36°39' E 011°52'510.1
2017-May-18 12:30N 36°44' E 011°51'19 9.8
2017-May-18 10:32N 37°03' E 011°44'2810.0
2017-May-18 07:43N 37°29' E 011°33'210.2
2017-May-18 07:29N 37°31' E 011°32'2310.6
2017-May-18 05:18N 37°53' E 011°23'310.5
2017-May-18 05:00N 37°56' E 011°21'510.7
2017-May-18 04:29N 38°02' E 011°19'610.7
2017-May-18 03:54N 38°08' E 011°17'610.7
2017-May-18 03:18N 38°14' E 011°14'310.8
2017-May-18 03:00N 38°17' E 011°13'610.9
2017-May-18 02:27N 38°22' E 011°10'510.9
2017-May-18 02:00N 38°27' E 011°08'510.4
2017-May-18 01:28N 38°32' E 011°06'610.5
2017-May-18 00:55N 38°38' E 011°04'510.4
2017-May-18 00:27N 38°42' E 011°02'510.4
2017-May-17 23:58N 38°47' E 010°60'510.4
2017-May-17 23:28N 38°52' E 010°57'510.3
2017-May-17 23:00N 38°56' E 010°55'610.4
2017-May-17 22:28N 39°02' E 010°53'610.6
2017-May-17 21:55N 39°07' E 010°50'410.6
2017-May-17 21:31N 39°11' E 010°49'610.7
2017-May-17 21:00N 39°17' E 010°46'510.8
2017-May-17 20:30N 39°22' E 010°44'510.8
2017-May-17 20:00N 39°27' E 010°42'610.9
2017-May-17 19:29N 39°32' E 010°40'510.9
2017-May-17 19:00N 39°37' E 010°37'610.8
2017-May-17 18:24N 39°43' E 010°34'410.6
2017-May-17 18:00N 39°47' E 010°33'510.4
2017-May-17 17:30N 39°52' E 010°31'510.5
2017-May-17 16:59N 39°57' E 010°29'1610.5
2017-May-17 15:26N 40°13' E 010°21'510.7
2017-May-17 14:59N 40°17' E 010°19'1010.3
2017-May-17 14:00N 40°27' E 010°15'510.2
2017-May-17 13:30N 40°31' E 010°13'610.5
2017-May-17 12:57N 40°37' E 010°10'610.4
2017-May-17 12:23N 40°42' E 010°07'410.4
2017-May-17 11:57N 40°46' E 010°05'510.4
2017-May-17 11:31N 40°51' E 010°02'510.2
2017-May-17 11:01N 40°56' E 010°01'710.4
2017-May-17 10:20N 41°03' E 009°59'510.5
2017-May-17 09:53N 41°07' E 009°58'410.2
2017-May-17 09:29N 41°11' E 009°58'710.2
2017-May-17 08:50N 41°18' E 009°56'514.9
2017-May-17 08:28N 41°23' E 009°55'4 7.1
2017-May-17 07:58N 41°27' E 009°55'7510.5
2017-May-17 00:52N 42°41' E 009°39'510.9
2017-May-17 00:27N 42°45' E 009°38'611.0
2017-May-16 23:53N 42°51' E 009°37'410.7
2017-May-16 23:30N 42°55' E 009°36'510.6
2017-May-16 23:00N 43°01' E 009°35'510.6
2017-May-16 22:30N 43°06' E 009°34'510.4
2017-May-16 22:00N 43°11' E 009°35'610.5
2017-May-16 21:26N 43°17' E 009°37'410.5
2017-May-16 21:00N 43°21' E 009°39'510.6
2017-May-16 20:30N 43°26' E 009°41'510.6
2017-May-16 20:00N 43°31' E 009°43'510.4
2017-May-16 19:30N 43°36' E 009°45'510.6
2017-May-16 19:00N 43°42' E 009°47'510.4
2017-May-16 18:30N 43°46' E 009°49'510.6
2017-May-16 18:00N 43°51' E 009°54'510.4
2017-May-16 17:30N 43°55' E 009°58'510.0
2017-May-16 17:00N 43°59' E 010°02'3 5.6
2017-May-16 16:30N 44°02' E 010°02'0 0.2
2017-May-16 15:56N 44°02' E 010°02'0 0.0
2017-May-16 15:26N 44°02' E 010°02'0 0.0
2017-May-16 14:50N 44°02' E 010°02'0 0.0
2017-May-16 13:59N 44°02' E 010°02'0 0.0
2017-May-16 13:29N 44°02' E 010°02'0 0.0
2017-May-16 12:56N 44°02' E 010°02'0 0.0
2017-May-16 12:26N 44°02' E 010°02'0 0.0
2017-May-16 11:57N 44°02' E 010°02'0 0.0
2017-May-16 11:29N 44°02' E 010°02'0 0.0
2017-May-16 10:56N 44°02' E 010°02'0 0.0
2017-May-16 10:29N 44°02' E 010°02'0 0.0
2017-May-16 10:00N 44°02' E 010°02'0 0.0
2017-May-16 09:29N 44°02' E 010°02'0 0.0
2017-May-16 08:56N 44°02' E 010°02'0 0.0
2017-May-16 08:26N 44°02' E 010°02'0 0.0
2017-May-16 08:00N 44°02' E 010°02'0 0.0
2017-May-16 07:23N 44°02' E 010°02'0 0.0
2017-May-16 06:53N 44°02' E 010°02'0 0.0
2017-May-16 06:23N 44°02' E 010°02'0 0.0
2017-May-16 05:56N 44°02' E 010°02'0 0.0
2017-May-16 05:23N 44°02' E 010°02'0 0.0
2017-May-16 04:59N 44°02' E 010°02'0 0.0
2017-May-16 04:26N 44°02' E 010°02'0 0.0
2017-May-16 03:56N 44°02' E 010°02'0 0.0
2017-May-16 03:23N 44°02' E 010°02'0 0.0
2017-May-16 02:59N 44°02' E 010°02'0 0.0
2017-May-16 02:23N 44°02' E 010°02'0 0.0
2017-May-16 01:53N 44°02' E 010°02'0 0.0
2017-May-16 01:29N 44°02' E 010°02'0 0.0
2017-May-16 00:59N 44°02' E 010°02'0 0.0
2017-May-16 00:30N 44°02' E 010°02'0 0.0
2017-May-15 23:56N 44°02' E 010°02'0 0.0
2017-May-15 23:26N 44°02' E 010°02'0 0.0
2017-May-15 22:53N 44°02' E 010°02'0 0.0
2017-May-15 22:23N 44°02' E 010°02'0 0.0
2017-May-15 21:50N 44°02' E 010°02'0 0.0
2017-May-15 21:26N 44°02' E 010°02'0 0.0
2017-May-15 20:50N 44°02' E 010°02'0 0.0
2017-May-15 20:27N 44°02' E 010°02'0 0.0
2017-May-15 19:59N 44°02' E 010°02'0 0.0
2017-May-15 19:23N 44°02' E 010°02'0 0.0
2017-May-15 18:53N 44°02' E 010°02'0 0.0
2017-May-15 18:29N 44°02' E 010°02'0 0.0
2017-May-15 17:59N 44°02' E 010°02'0 0.0
2017-May-15 17:29N 44°02' E 010°02'0 0.0
2017-May-15 17:00N 44°02' E 010°02'0 0.0
2017-May-15 16:29N 44°02' E 010°02'0 0.0
2017-May-15 15:56N 44°02' E 010°02'0 0.0
2017-May-15 15:29N 44°02' E 010°02'0 0.0
2017-May-15 14:56N 44°02' E 010°02'0 0.0
2017-May-15 14:26N 44°02' E 010°02'0 0.0
2017-May-15 13:26N 44°02' E 010°02'0 0.0
2017-May-15 12:56N 44°02' E 010°02'0 0.0
2017-May-15 12:26N 44°02' E 010°02'0 0.0
2017-May-15 11:57N 44°02' E 010°02'0 0.0
2017-May-15 10:05N 44°02' E 010°02'0 0.0
2017-May-15 09:50N 44°02' E 010°02'0 0.0
2017-May-15 09:02N 44°02' E 010°02'0 0.0
2017-May-15 08:57N 44°02' E 010°02'0 0.0
2017-May-15 08:26N 44°02' E 010°02'0 0.0
2017-May-15 07:56N 44°02' E 010°02'0 0.0
2017-May-15 07:29N 44°02' E 010°02'0 0.0
2017-May-15 06:53N 44°02' E 010°02'0 0.0
2017-May-15 06:15N 44°02' E 010°02'0 0.0
2017-May-15 05:39N 44°02' E 010°02'0 0.0
2017-May-15 05:27N 44°02' E 010°02'0 0.0
2017-May-15 05:00N 44°02' E 010°02'0 0.0
2017-May-15 04:30N 44°02' E 010°02'0 0.0
2017-May-15 03:56N 44°02' E 010°02'0 0.0
2017-May-15 03:29N 44°02' E 010°02'0 0.0
2017-May-15 02:56N 44°02' E 010°02'0 0.0
2017-May-15 02:27N 44°02' E 010°02'0 0.0
2017-May-15 01:59N 44°02' E 010°02'0 0.0
2017-May-15 01:26N 44°02' E 010°02'0 0.0
2017-May-15 01:00N 44°02' E 010°02'0 0.0
2017-May-15 00:26N 44°02' E 010°02'0 0.0
2017-May-15 00:00N 44°02' E 010°02'0 0.0
2017-May-14 23:26N 44°02' E 010°02'0 0.0
2017-May-14 22:59N 44°02' E 010°02'0 0.0
2017-May-14 22:30N 44°02' E 010°02'0 0.0
2017-May-14 21:59N 44°02' E 010°02'0 0.0
2017-May-14 21:29N 44°02' E 010°02'0 0.0
2017-May-14 20:59N 44°02' E 010°02'0 0.0
2017-May-14 20:26N 44°02' E 010°02'0 0.0
2017-May-14 19:59N 44°02' E 010°02'0 0.0
2017-May-14 19:26N 44°02' E 010°02'0 0.0
2017-May-14 18:57N 44°02' E 010°02'0 0.0
2017-May-14 18:26N 44°02' E 010°02'0 0.0
2017-May-14 17:56N 44°02' E 010°02'0 0.0
2017-May-14 17:29N 44°02' E 010°02'0 0.0
2017-May-14 16:56N 44°02' E 010°02'0 0.0
2017-May-14 16:29N 44°02' E 010°02'0 0.0
2017-May-14 15:56N 44°02' E 010°02'0 0.0
2017-May-14 15:20N 44°02' E 010°02'0 0.0
2017-May-14 14:56N 44°02' E 010°02'0 0.0
2017-May-14 14:20N 44°02' E 010°02'0 0.0
2017-May-14 13:26N 44°02' E 010°02'0 0.0
2017-May-14 12:50N 44°02' E 010°02'0 0.0
2017-May-14 12:26N 44°02' E 010°02'0 0.0
2017-May-14 11:56N 44°02' E 010°02'0 0.0
2017-May-14 11:26N 44°02' E 010°02'0 0.0
2017-May-14 10:59N 44°02' E 010°02'0 0.0
2017-May-14 10:20N 44°02' E 010°02'0 0.0
2017-May-14 09:26N 44°02' E 010°02'0 0.0
2017-May-14 08:56N 44°02' E 010°02'0 0.0
2017-May-14 08:26N 44°02' E 010°02'0 0.0
2017-May-14 07:56N 44°02' E 010°02'0 0.0
2017-May-14 07:29N 44°02' E 010°02'0 0.0
2017-May-14 06:53N 44°02' E 010°02'0 0.0
2017-May-14 06:23N 44°02' E 010°02'0 0.0
2017-May-14 05:47N 44°02' E 010°02'0 0.0
2017-May-14 05:27N 44°02' E 010°02'0 0.0
2017-May-14 04:53N 44°02' E 010°02'0 0.0
2017-May-14 04:29N 44°02' E 010°02'0 0.0
2017-May-14 03:56N 44°02' E 010°02'0 0.0
2017-May-14 03:29N 44°02' E 010°02'0 0.0
2017-May-14 02:56N 44°02' E 010°02'0 0.0
2017-May-14 02:30N 44°02' E 010°02'0 0.0
2017-May-14 01:59N 44°02' E 010°02'0 0.0
2017-May-14 01:29N 44°02' E 010°02'0 0.0
2017-May-14 00:59N 44°02' E 010°02'0 0.0
2017-May-14 00:29N 44°02' E 010°02'0 0.0
2017-May-13 23:59N 44°02' E 010°02'0 0.0
2017-May-13 23:29N 44°02' E 010°02'0 0.0
2017-May-13 22:57N 44°02' E 010°02'0 0.0
2017-May-13 22:29N 44°02' E 010°02'0 0.0
2017-May-13 22:00N 44°02' E 010°02'0 0.0
2017-May-13 21:30N 44°02' E 010°02'0 0.0
2017-May-13 20:57N 44°02' E 010°02'0 0.0
2017-May-13 20:14N 44°02' E 010°02'0 0.0
2017-May-13 19:56N 44°02' E 010°02'0 0.0
2017-May-13 19:24N 44°02' E 010°02'0 0.0
2017-May-13 19:00N 44°02' E 010°02'0 0.0
2017-May-13 18:26N 44°02' E 010°02'0 0.0
2017-May-13 18:00N 44°02' E 010°02'0 0.0
2017-May-13 17:20N 44°02' E 010°02'0 0.0
2017-May-13 16:57N 44°02' E 010°02'0 0.0
2017-May-13 16:26N 44°02' E 010°02'  
Track history (hours):
 
Tides and Currents Weather Stations Pressure Air Temp Water Temp Dewpoint Dewpoint Depression Visibility Wind Speed Wind Dir Waves Ship Positions

Sds Green

Last reported at 2017-May-23 15:56 UTC. Time now 2017-May-23 17:06 UTC.
Position N 35°14' E 012°58'.

Length 108 m; draft 4.8 m.

Type: Cargo ship. MMSI: 247292200.

Date/timePositionNaut miles runAvg speedWind from/ knotsBaromVisibWave heightAir tempDewpointWater temp
2017-May-23 15:56N 35°14' E 012°58'5411.5
2017-May-23 11:14N 34°48' E 011°60'311.6
2017-May-23 11:00N 34°47' E 011°57'611.5
2017-May-23 10:30N 34°44' E 011°51'611.4
2017-May-23 10:00N 34°42' E 011°45'2411.3
2017-May-23 07:55N 34°33' E 011°18'511.5
2017-May-23 07:30N 34°32' E 011°13'25 2.6
2017-May-22 21:40N 34°44' E 010°46'0 0.0
2017-May-22 19:16N 34°44' E 010°46'0 0.0
2017-May-22 18:55N 34°44' E 010°46'  
2017-May-20 11:53N 34°44' E 010°46'0 0.0
2017-May-20 11:29N 34°44' E 010°46'31 1.0
2017-May-19 05:07N 34°28' E 011°19'1 9.8
2017-May-19 04:58N 34°29' E 011°21'18 9.7
2017-May-19 03:09N 34°36' E 011°40'1 9.7
2017-May-19 03:00N 34°37' E 011°42'5 9.5
2017-May-19 02:30N 34°40' E 011°46'5 9.5
2017-May-19 02:00N 34°42' E 011°52'5 9.6
2017-May-19 01:30N 34°43' E 011°57'5 9.6
2017-May-19 01:00N 34°45' E 012°02'5 8.7
2017-May-19 00:29N 34°50' E 012°03'4 9.1
2017-May-19 00:00N 34°54' E 012°02'5 9.1
2017-May-18 23:30N 34°59' E 012°02'5 9.2
2017-May-18 23:00N 35°03' E 012°01'41 9.4
2017-May-18 18:38N 35°44' E 011°53'1 9.3
2017-May-18 18:30N 35°45' E 011°53'5 9.2
2017-May-18 18:00N 35°49' E 011°52'510.0
2017-May-18 17:28N 35°55' E 011°52'34 9.9
2017-May-18 14:00N 36°29' E 011°51'5 9.9
2017-May-18 13:30N 36°34' E 011°51'510.0
2017-May-18 13:00N 36°39' E 011°52'510.1
2017-May-18 12:30N 36°44' E 011°51'19 9.8
2017-May-18 10:32N 37°03' E 011°44'2810.0
2017-May-18 07:43N 37°29' E 011°33'210.2
2017-May-18 07:29N 37°31' E 011°32'2310.6
2017-May-18 05:18N 37°53' E 011°23'310.5
2017-May-18 05:00N 37°56' E 011°21'510.7
2017-May-18 04:29N 38°02' E 011°19'610.7
2017-May-18 03:54N 38°08' E 011°17'610.7
2017-May-18 03:18N 38°14' E 011°14'310.8
2017-May-18 03:00N 38°17' E 011°13'610.9
2017-May-18 02:27N 38°22' E 011°10'510.9
2017-May-18 02:00N 38°27' E 011°08'510.4
2017-May-18 01:28N 38°32' E 011°06'610.5
2017-May-18 00:55N 38°38' E 011°04'510.4
2017-May-18 00:27N 38°42' E 011°02'510.4
2017-May-17 23:58N 38°47' E 010°60'510.4
2017-May-17 23:28N 38°52' E 010°57'510.3
2017-May-17 23:00N 38°56' E 010°55'610.4
2017-May-17 22:28N 39°02' E 010°53'610.6
2017-May-17 21:55N 39°07' E 010°50'410.6
2017-May-17 21:31N 39°11' E 010°49'610.7
2017-May-17 21:00N 39°17' E 010°46'510.8
2017-May-17 20:30N 39°22' E 010°44'510.8
2017-May-17 20:00N 39°27' E 010°42'610.9
2017-May-17 19:29N 39°32' E 010°40'510.9
2017-May-17 19:00N 39°37' E 010°37'610.8
2017-May-17 18:24N 39°43' E 010°34'410.6
2017-May-17 18:00N 39°47' E 010°33'510.4
2017-May-17 17:30N 39°52' E 010°31'510.5
2017-May-17 16:59N 39°57' E 010°29'1610.5
2017-May-17 15:26N 40°13' E 010°21'510.7
2017-May-17 14:59N 40°17' E 010°19'1010.3
2017-May-17 14:00N 40°27' E 010°15'510.2
2017-May-17 13:30N 40°31' E 010°13'610.5
2017-May-17 12:57N 40°37' E 010°10'610.4
2017-May-17 12:23N 40°42' E 010°07'410.4
2017-May-17 11:57N 40°46' E 010°05'510.4
2017-May-17 11:31N 40°51' E 010°02'510.2
2017-May-17 11:01N 40°56' E 010°01'710.4
2017-May-17 10:20N 41°03' E 009°59'510.5
2017-May-17 09:53N 41°07' E 009°58'410.2
2017-May-17 09:29N 41°11' E 009°58'710.2
2017-May-17 08:50N 41°18' E 009°56'514.9
2017-May-17 08:28N 41°23' E 009°55'4 7.1
2017-May-17 07:58N 41°27' E 009°55'7510.5
2017-May-17 00:52N 42°41' E 009°39'510.9
2017-May-17 00:27N 42°45' E 009°38'611.0
2017-May-16 23:53N 42°51' E 009°37'410.7
2017-May-16 23:30N 42°55' E 009°36'510.6
2017-May-16 23:00N 43°01' E 009°35'510.6
2017-May-16 22:30N 43°06' E 009°34'510.4
2017-May-16 22:00N 43°11' E 009°35'610.5
2017-May-16 21:26N 43°17' E 009°37'410.5
2017-May-16 21:00N 43°21' E 009°39'510.6
2017-May-16 20:30N 43°26' E 009°41'510.6
2017-May-16 20:00N 43°31' E 009°43'510.4
2017-May-16 19:30N 43°36' E 009°45'510.6
2017-May-16 19:00N 43°42' E 009°47'510.4
2017-May-16 18:30N 43°46' E 009°49'510.6
2017-May-16 18:00N 43°51' E 009°54'510.4
2017-May-16 17:30N 43°55' E 009°58'510.0
2017-May-16 17:00N 43°59' E 010°02'3 5.6
2017-May-16 16:30N 44°02' E 010°02'0 0.2
2017-May-16 15:56N 44°02' E 010°02'0 0.0
2017-May-16 15:26N 44°02' E 010°02'0 0.0
2017-May-16 14:50N 44°02' E 010°02'0 0.0
2017-May-16 13:59N 44°02' E 010°02'0 0.0
2017-May-16 13:29N 44°02' E 010°02'0 0.0
2017-May-16 12:56N 44°02' E 010°02'0 0.0
2017-May-16 12:26N 44°02' E 010°02'0 0.0
2017-May-16 11:57N 44°02' E 010°02'0 0.0
2017-May-16 11:29N 44°02' E 010°02'0 0.0
2017-May-16 10:56N 44°02' E 010°02'0 0.0
2017-May-16 10:29N 44°02' E 010°02'0 0.0
2017-May-16 10:00N 44°02' E 010°02'0 0.0
2017-May-16 09:29N 44°02' E 010°02'0 0.0
2017-May-16 08:56N 44°02' E 010°02'0 0.0
2017-May-16 08:26N 44°02' E 010°02'0 0.0
2017-May-16 08:00N 44°02' E 010°02'0 0.0
2017-May-16 07:23N 44°02' E 010°02'0 0.0
2017-May-16 06:53N 44°02' E 010°02'0 0.0
2017-May-16 06:23N 44°02' E 010°02'0 0.0
2017-May-16 05:56N 44°02' E 010°02'0 0.0
2017-May-16 05:23N 44°02' E 010°02'0 0.0
2017-May-16 04:59N 44°02' E 010°02'0 0.0
2017-May-16 04:26N 44°02' E 010°02'0 0.0
2017-May-16 03:56N 44°02' E 010°02'0 0.0
2017-May-16 03:23N 44°02' E 010°02'0 0.0
2017-May-16 02:59N 44°02' E 010°02'0 0.0
2017-May-16 02:23N 44°02' E 010°02'0 0.0
2017-May-16 01:53N 44°02' E 010°02'0 0.0
2017-May-16 01:29N 44°02' E 010°02'0 0.0
2017-May-16 00:59N 44°02' E 010°02'0 0.0
2017-May-16 00:30N 44°02' E 010°02'0 0.0
2017-May-15 23:56N 44°02' E 010°02'0 0.0
2017-May-15 23:26N 44°02' E 010°02'0 0.0
2017-May-15 22:53N 44°02' E 010°02'0 0.0
2017-May-15 22:23N 44°02' E 010°02'0 0.0
2017-May-15 21:50N 44°02' E 010°02'0 0.0
2017-May-15 21:26N 44°02' E 010°02'0 0.0
2017-May-15 20:50N 44°02' E 010°02'0 0.0
2017-May-15 20:27N 44°02' E 010°02'0 0.0
2017-May-15 19:59N 44°02' E 010°02'0 0.0
2017-May-15 19:23N 44°02' E 010°02'0 0.0
2017-May-15 18:53N 44°02' E 010°02'0 0.0
2017-May-15 18:29N 44°02' E 010°02'0 0.0
2017-May-15 17:59N 44°02' E 010°02'0 0.0
2017-May-15 17:29N 44°02' E 010°02'0 0.0
2017-May-15 17:00N 44°02' E 010°02'0 0.0
2017-May-15 16:29N 44°02' E 010°02'0 0.0
2017-May-15 15:56N 44°02' E 010°02'0 0.0
2017-May-15 15:29N 44°02' E 010°02'0 0.0
2017-May-15 14:56N 44°02' E 010°02'0 0.0
2017-May-15 14:26N 44°02' E 010°02'0 0.0
2017-May-15 13:26N 44°02' E 010°02'0 0.0
2017-May-15 12:56N 44°02' E 010°02'0 0.0
2017-May-15 12:26N 44°02' E 010°02'0 0.0
2017-May-15 11:57N 44°02' E 010°02'0 0.0
2017-May-15 10:05N 44°02' E 010°02'0 0.0
2017-May-15 09:50N 44°02' E 010°02'0 0.0
2017-May-15 09:02N 44°02' E 010°02'0 0.0
2017-May-15 08:57N 44°02' E 010°02'0 0.0
2017-May-15 08:26N 44°02' E 010°02'0 0.0
2017-May-15 07:56N 44°02' E 010°02'0 0.0
2017-May-15 07:29N 44°02' E 010°02'0 0.0
2017-May-15 06:53N 44°02' E 010°02'0 0.0
2017-May-15 06:15N 44°02' E 010°02'0 0.0
2017-May-15 05:39N 44°02' E 010°02'0 0.0
2017-May-15 05:27N 44°02' E 010°02'0 0.0
2017-May-15 05:00N 44°02' E 010°02'0 0.0
2017-May-15 04:30N 44°02' E 010°02'0 0.0
2017-May-15 03:56N 44°02' E 010°02'0 0.0
2017-May-15 03:29N 44°02' E 010°02'0 0.0
2017-May-15 02:56N 44°02' E 010°02'0 0.0
2017-May-15 02:27N 44°02' E 010°02'0 0.0
2017-May-15 01:59N 44°02' E 010°02'0 0.0
2017-May-15 01:26N 44°02' E 010°02'0 0.0
2017-May-15 01:00N 44°02' E 010°02'0 0.0
2017-May-15 00:26N 44°02' E 010°02'0 0.0
2017-May-15 00:00N 44°02' E 010°02'0 0.0
2017-May-14 23:26N 44°02' E 010°02'0 0.0
2017-May-14 22:59N 44°02' E 010°02'0 0.0
2017-May-14 22:30N 44°02' E 010°02'0 0.0
2017-May-14 21:59N 44°02' E 010°02'0 0.0
2017-May-14 21:29N 44°02' E 010°02'0 0.0
2017-May-14 20:59N 44°02' E 010°02'0 0.0
2017-May-14 20:26N 44°02' E 010°02'0 0.0
2017-May-14 19:59N 44°02' E 010°02'0 0.0
2017-May-14 19:26N 44°02' E 010°02'0 0.0
2017-May-14 18:57N 44°02' E 010°02'0 0.0
2017-May-14 18:26N 44°02' E 010°02'0 0.0
2017-May-14 17:56N 44°02' E 010°02'0 0.0
2017-May-14 17:29N 44°02' E 010°02'0 0.0
2017-May-14 16:56N 44°02' E 010°02'0 0.0
2017-May-14 16:29N 44°02' E 010°02'0 0.0
2017-May-14 15:56N 44°02' E 010°02'0 0.0
2017-May-14 15:20N 44°02' E 010°02'0 0.0
2017-May-14 14:56N 44°02' E 010°02'0 0.0
2017-May-14 14:20N 44°02' E 010°02'0 0.0
2017-May-14 13:26N 44°02' E 010°02'0 0.0
2017-May-14 12:50N 44°02' E 010°02'0 0.0
2017-May-14 12:26N 44°02' E 010°02'0 0.0
2017-May-14 11:56N 44°02' E 010°02'0 0.0
2017-May-14 11:26N 44°02' E 010°02'0 0.0
2017-May-14 10:59N 44°02' E 010°02'0 0.0
2017-May-14 10:20N 44°02' E 010°02'0 0.0
2017-May-14 09:26N 44°02' E 010°02'0 0.0
2017-May-14 08:56N 44°02' E 010°02'0 0.0
2017-May-14 08:26N 44°02' E 010°02'0 0.0
2017-May-14 07:56N 44°02' E 010°02'0 0.0
2017-May-14 07:29N 44°02' E 010°02'0 0.0
2017-May-14 06:53N 44°02' E 010°02'0 0.0
2017-May-14 06:23N 44°02' E 010°02'0 0.0
2017-May-14 05:47N 44°02' E 010°02'0 0.0
2017-May-14 05:27N 44°02' E 010°02'0 0.0
2017-May-14 04:53N 44°02' E 010°02'0 0.0
2017-May-14 04:29N 44°02' E 010°02'0 0.0
2017-May-14 03:56N 44°02' E 010°02'0 0.0
2017-May-14 03:29N 44°02' E 010°02'0 0.0
2017-May-14 02:56N 44°02' E 010°02'0 0.0
2017-May-14 02:30N 44°02' E 010°02'0 0.0
2017-May-14 01:59N 44°02' E 010°02'0 0.0
2017-May-14 01:29N 44°02' E 010°02'0 0.0
2017-May-14 00:59N 44°02' E 010°02'0 0.0
2017-May-14 00:29N 44°02' E 010°02'0 0.0
2017-May-13 23:59N 44°02' E 010°02'0 0.0
2017-May-13 23:29N 44°02' E 010°02'0 0.0
2017-May-13 22:57N 44°02' E 010°02'0 0.0
2017-May-13 22:29N 44°02' E 010°02'0 0.0
2017-May-13 22:00N 44°02' E 010°02'0 0.0
2017-May-13 21:30N 44°02' E 010°02'0 0.0
2017-May-13 20:57N 44°02' E 010°02'0 0.0
2017-May-13 20:14N 44°02' E 010°02'0 0.0
2017-May-13 19:56N 44°02' E 010°02'0 0.0
2017-May-13 19:24N 44°02' E 010°02'0 0.0
2017-May-13 19:00N 44°02' E 010°02'0 0.0
2017-May-13 18:26N 44°02' E 010°02'0 0.0
2017-May-13 18:00N 44°02' E 010°02'0 0.0
2017-May-13 17:20N 44°02' E 010°02'0 0.0
2017-May-13 16:57N 44°02' E 010°02'0 0.0
2017-May-13 16:26N 44°02' E 010°02'  

Dump ship's entire track history